Fairpartner — PHEC — position and weather

sailwx.info

Track history (hours):
 
Tides and Currents Weather Stations Pressure Air Temp Water Temp Dewpoint Dewpoint Depression Visibility Wind Speed Wind Dir Waves Ship Positions

Fairpartner

Last reported at 2015-Feb-17 02:33 UTC. Time now 2015-Mar-05 08:11 UTC.
Position N 25°04' E 119°58'.
Warning: this ship's position is 16 days out of date.

Length 143 m; beam 27 m.

Type: Cargo ship. MMSI: 246466992.

Date/timePositionNaut miles runAvg speedWind from/ knotsBaromVisibWave heightAir tempDewpointWater temp
2015-Feb-17 02:33N 25°04' E 119°58'45 8.7
2015-Feb-16 21:24N 24°39' E 119°17'8 9.7
2015-Feb-16 20:34N 24°35' E 119°09'20 8.9
2015-Feb-16 18:17N 24°24' E 118°50'7 9.2
2015-Feb-16 17:33N 24°21' E 118°44'9 9.2
2015-Feb-16 16:33N 24°18' E 118°34'9 9.5
2015-Feb-16 15:33N 24°15' E 118°24'9 9.0
2015-Feb-16 14:32N 24°16' E 118°14'1110.3
2015-Feb-16 13:31N 24°24' E 118°06'4 4.0
2015-Feb-16 12:30N 24°25' E 118°02'0 0.0
2015-Feb-16 11:18N 24°25' E 118°02'0 0.0
2015-Feb-16 09:24N 24°25' E 118°02'0 0.0
2015-Feb-16 08:24N 24°25' E 118°02'0 0.0
2015-Feb-16 07:18N 24°25' E 118°02'0 0.0
2015-Feb-16 06:30N 24°25' E 118°02'0 0.0
2015-Feb-16 05:30N 24°25' E 118°02'0 0.0
2015-Feb-16 04:12N 24°25' E 118°02'0 0.0
2015-Feb-16 03:12N 24°25' E 118°02'0 0.0
2015-Feb-16 02:30N 24°25' E 118°02'0 0.0
2015-Feb-16 01:30N 24°25' E 118°02'0 0.0
2015-Feb-16 00:30N 24°25' E 118°02'0 0.0
2015-Feb-15 23:30N 24°25' E 118°02'0 0.0
2015-Feb-15 22:24N 24°25' E 118°02'0 0.0
2015-Feb-15 21:24N 24°25' E 118°02'0 0.0
2015-Feb-15 20:24N 24°25' E 118°02'0 0.0
2015-Feb-15 18:18N 24°25' E 118°02'0 0.0
2015-Feb-15 17:24N 24°25' E 118°02'0 0.0
2015-Feb-15 16:12N 24°25' E 118°02'0 0.0
2015-Feb-15 15:06N 24°25' E 118°02'0 0.0
2015-Feb-15 13:30N 24°25' E 118°02'0 0.0
2015-Feb-15 12:30N 24°25' E 118°02'0 0.0
2015-Feb-15 11:30N 24°25' E 118°02'0 0.0
2015-Feb-15 10:30N 24°25' E 118°02'0 0.0
2015-Feb-15 09:18N 24°25' E 118°02'0 0.0
2015-Feb-15 07:24N 24°25' E 118°02'0 0.0
2015-Feb-15 06:12N 24°25' E 118°02'0 0.0
2015-Feb-15 05:24N 24°25' E 118°02'0 0.0
2015-Feb-15 04:24N 24°25' E 118°02'0 0.0
2015-Feb-15 03:18N 24°25' E 118°02'0 0.0
2015-Feb-15 01:12N 24°25' E 118°02'0 0.0
2015-Feb-15 00:18N 24°25' E 118°02'0 0.0
2015-Feb-14 23:24N 24°25' E 118°02'0 0.0
2015-Feb-14 22:24N 24°25' E 118°02'0 0.0
2015-Feb-14 21:30N 24°25' E 118°02'0 0.0
2015-Feb-14 20:07N 24°25' E 118°02'0 0.0
2015-Feb-14 19:18N 24°25' E 118°02'0 0.0
2015-Feb-14 17:30N 24°25' E 118°02'0 0.0
2015-Feb-14 16:06N 24°25' E 118°02'0 0.0
2015-Feb-14 14:18N 24°25' E 118°02'0 0.0
2015-Feb-14 13:24N 24°25' E 118°02'0 0.0
2015-Feb-14 12:30N 24°25' E 118°02'0 0.0
2015-Feb-14 11:12N 24°25' E 118°02'0 0.0
2015-Feb-14 10:18N 24°25' E 118°02'0 0.0
2015-Feb-14 09:30N 24°25' E 118°02'0 0.1
2015-Feb-14 05:33N 24°25' E 118°03'8 7.9
2015-Feb-14 04:33N 24°21' E 118°10'2 1.6
2015-Feb-14 03:32N 24°20' E 118°12'0 0.0
2015-Feb-14 02:32N 24°20' E 118°12'0 0.1
2015-Feb-14 01:32N 24°20' E 118°12'0 0.1
2015-Feb-14 00:33N 24°20' E 118°12'3 2.8
2015-Feb-13 23:33N 24°18' E 118°11'1110.7
2015-Feb-13 22:33N 24°08' E 118°16'1212.0
2015-Feb-13 21:33N 23°57' E 118°11'1211.9
2015-Feb-13 20:33N 23°47' E 118°04'1713.9
2015-Feb-13 19:20N 23°33' E 117°54'1414.5
2015-Feb-13 18:20N 23°20' E 117°46'1113.9
2015-Feb-13 17:33N 23°10' E 117°40'1313.1
2015-Feb-13 16:33N 23°00' E 117°32'1512.3
2015-Feb-13 15:21N 22°48' E 117°23'1012.7
2015-Feb-13 14:33N 22°39' E 117°18'52213.5
2015-Feb-12 00:00N 15°24' E 112°12'29912.4 030 / 111016.210.8 22.517.224.4
2015-Feb-11 00:00N 11°18' E 109°18'   010 / 151014.1 5.4 1.023.018.524.5
Track history (hours):
 
Tides and Currents Weather Stations Pressure Air Temp Water Temp Dewpoint Dewpoint Depression Visibility Wind Speed Wind Dir Waves Ship Positions

Fairpartner

Last reported at 2015-Feb-17 02:33 UTC. Time now 2015-Mar-05 08:11 UTC.
Position N 25°04' E 119°58'.
Warning: this ship's position is 16 days out of date.

Length 143 m; beam 27 m.

Type: Cargo ship. MMSI: 246466992.

Date/timePositionNaut miles runAvg speedWind from/ knotsBaromVisibWave heightAir tempDewpointWater temp
2015-Feb-17 02:33N 25°04' E 119°58'45 8.7
2015-Feb-16 21:24N 24°39' E 119°17'8 9.7
2015-Feb-16 20:34N 24°35' E 119°09'20 8.9
2015-Feb-16 18:17N 24°24' E 118°50'7 9.2
2015-Feb-16 17:33N 24°21' E 118°44'9 9.2
2015-Feb-16 16:33N 24°18' E 118°34'9 9.5
2015-Feb-16 15:33N 24°15' E 118°24'9 9.0
2015-Feb-16 14:32N 24°16' E 118°14'1110.3
2015-Feb-16 13:31N 24°24' E 118°06'4 4.0
2015-Feb-16 12:30N 24°25' E 118°02'0 0.0
2015-Feb-16 11:18N 24°25' E 118°02'0 0.0
2015-Feb-16 09:24N 24°25' E 118°02'0 0.0
2015-Feb-16 08:24N 24°25' E 118°02'0 0.0
2015-Feb-16 07:18N 24°25' E 118°02'0 0.0
2015-Feb-16 06:30N 24°25' E 118°02'0 0.0
2015-Feb-16 05:30N 24°25' E 118°02'0 0.0
2015-Feb-16 04:12N 24°25' E 118°02'0 0.0
2015-Feb-16 03:12N 24°25' E 118°02'0 0.0
2015-Feb-16 02:30N 24°25' E 118°02'0 0.0
2015-Feb-16 01:30N 24°25' E 118°02'0 0.0
2015-Feb-16 00:30N 24°25' E 118°02'0 0.0
2015-Feb-15 23:30N 24°25' E 118°02'0 0.0
2015-Feb-15 22:24N 24°25' E 118°02'0 0.0
2015-Feb-15 21:24N 24°25' E 118°02'0 0.0
2015-Feb-15 20:24N 24°25' E 118°02'0 0.0
2015-Feb-15 18:18N 24°25' E 118°02'0 0.0
2015-Feb-15 17:24N 24°25' E 118°02'0 0.0
2015-Feb-15 16:12N 24°25' E 118°02'0 0.0
2015-Feb-15 15:06N 24°25' E 118°02'0 0.0
2015-Feb-15 13:30N 24°25' E 118°02'0 0.0
2015-Feb-15 12:30N 24°25' E 118°02'0 0.0
2015-Feb-15 11:30N 24°25' E 118°02'0 0.0
2015-Feb-15 10:30N 24°25' E 118°02'0 0.0
2015-Feb-15 09:18N 24°25' E 118°02'0 0.0
2015-Feb-15 07:24N 24°25' E 118°02'0 0.0
2015-Feb-15 06:12N 24°25' E 118°02'0 0.0
2015-Feb-15 05:24N 24°25' E 118°02'0 0.0
2015-Feb-15 04:24N 24°25' E 118°02'0 0.0
2015-Feb-15 03:18N 24°25' E 118°02'0 0.0
2015-Feb-15 01:12N 24°25' E 118°02'0 0.0
2015-Feb-15 00:18N 24°25' E 118°02'0 0.0
2015-Feb-14 23:24N 24°25' E 118°02'0 0.0
2015-Feb-14 22:24N 24°25' E 118°02'0 0.0
2015-Feb-14 21:30N 24°25' E 118°02'0 0.0
2015-Feb-14 20:07N 24°25' E 118°02'0 0.0
2015-Feb-14 19:18N 24°25' E 118°02'0 0.0
2015-Feb-14 17:30N 24°25' E 118°02'0 0.0
2015-Feb-14 16:06N 24°25' E 118°02'0 0.0
2015-Feb-14 14:18N 24°25' E 118°02'0 0.0
2015-Feb-14 13:24N 24°25' E 118°02'0 0.0
2015-Feb-14 12:30N 24°25' E 118°02'0 0.0
2015-Feb-14 11:12N 24°25' E 118°02'0 0.0
2015-Feb-14 10:18N 24°25' E 118°02'0 0.0
2015-Feb-14 09:30N 24°25' E 118°02'0 0.1
2015-Feb-14 05:33N 24°25' E 118°03'8 7.9
2015-Feb-14 04:33N 24°21' E 118°10'2 1.6
2015-Feb-14 03:32N 24°20' E 118°12'0 0.0
2015-Feb-14 02:32N 24°20' E 118°12'0 0.1
2015-Feb-14 01:32N 24°20' E 118°12'0 0.1
2015-Feb-14 00:33N 24°20' E 118°12'3 2.8
2015-Feb-13 23:33N 24°18' E 118°11'1110.7
2015-Feb-13 22:33N 24°08' E 118°16'1212.0
2015-Feb-13 21:33N 23°57' E 118°11'1211.9
2015-Feb-13 20:33N 23°47' E 118°04'1713.9
2015-Feb-13 19:20N 23°33' E 117°54'1414.5
2015-Feb-13 18:20N 23°20' E 117°46'1113.9
2015-Feb-13 17:33N 23°10' E 117°40'1313.1
2015-Feb-13 16:33N 23°00' E 117°32'1512.3
2015-Feb-13 15:21N 22°48' E 117°23'1012.7
2015-Feb-13 14:33N 22°39' E 117°18'52213.5
2015-Feb-12 00:00N 15°24' E 112°12'29912.4 030 / 111016.210.8 22.517.224.4
2015-Feb-11 00:00N 11°18' E 109°18'   010 / 151014.1 5.4 1.023.018.524.5

Dump ship's entire track history